Main page
METAR-TAF:

METAR-TAF

Airports :

William R. Fairchild International Airport

Port Angeles, Washington, United States

latitude: 48-07-20N, longitude: 123-30-19W, elevation: 87 m

Current weather observation

The report was made 52 minutes ago, at 18:53 UTC
Wind 5 kt from variable directions
Temperature 20°C
Humidity 49%
Pressure 1017 hPa
Visibility: 16.1 km
Clear sky

METAR: KCLM 191853Z AUTO VRB05KT 10SM CLR 20/09 A3004 RMK AO2 SLP173 T02000094

Time: 12:45 (19:45 UTC)

Forecast

The report was made 2 hours and 25 minutes ago, at 17:20 UTC
Forecast valid from 19 at 18 UTC to 20 at 18 UTC
Wind 4 kt from variable directions
Visibility: 10 km
Clear sky
From 19 at 2200 UTC
Wind 5 kt from the East/Northeast
Visibility: 10 km
Clear sky
From 20 at 0600 UTC
Wind 6 kt from the West
Visibility: 10 km
Clear sky

TAF: KCLM 191720Z 1918/2018 VRB04KT P6SM SKC FM192200 06005KT P6SM SKC FM200600 28006KT P6SM SKC

Weather observations and forecasts of more than 4000 airports (METAR and TAF reports).

The available stations are represented by yellow and red dots on the map.

Hover mouse over dot to see the name of the station.

Then click to see weather observations and forecasts.

To change the map : click on the green buttons with a black cross to zoom in, on the green button with a dash to zoom out, or on the green arrows for adjacent maps.


METAR-TAF: